Últimos artigos:
Acender um LED com a tensão da rede eléctrica
Programação do Yaesu FT-60 para os EasySats
AO-91 (RadFxSat Fox-1B) está no Ar!
CT7AFR DIY CW-Keyer
Shutdown button for the Raspberry Pi
Simple C code to dump I2C device memory
Últimas fotos:
Últimos METARs:
LPAZ 261000Z 06007KT 360V090 9999 FEW011 1...
LPFR 261000Z 08015KT CAVOK 19/07 Q1011=
LPHR 261000Z VRB02KT 9999 FEW022 SCT080 16...
LPLA 261000Z /////KT 9999 FEW024 15/12 Q10...
LPMA 261000Z 35020KT 320V020 9999 FEW015 1...
LPPD 261000Z 03011KT 350V070 R30/P2000 FEW...
LPPR 261000Z 10016G27KT 080V140 CAVOK 16/0...
LPPS 261000Z 01017KT 9999 SCT012 18/13 Q10...
LPPT 261000Z 06015KT CAVOK 16/03 Q1014=
Últimos QSOs:
2019/03/09-18:22 6m CT1DMC (RUI)
2019/02/15-12:17 2m CT2IBF (JOSé)
2019/01/18-07:31 40m TM49OTAN (PHIL)
2018/09/08-11:04 40m DJ5AV (MICHAEL)
2018/09/08-11:03 40m M3FEH (KARL)
2018/09/08-11:01 40m EB7HQE (JESUS)
  UTC
Rpi-6 CPU Temp: 34.2 °C (261031Z)
IN51oq 1038Z /////KT //// 23/9 Q1018=
21362